sensor_id;sensor_type;location;lat;lon;timestamp;temperature;humidity
20973;DHT22;10645;52.370;13.314;2023-04-25T00:01:48;8.30;99.90
20973;DHT22;10645;52.370;13.314;2023-04-25T00:04:14;8.30;99.90
20973;DHT22;10645;52.370;13.314;2023-04-25T00:06:40;8.30;99.90
20973;DHT22;10645;52.370;13.314;2023-04-25T00:09:06;8.20;99.90
20973;DHT22;10645;52.370;13.314;2023-04-25T00:11:37;8.10;99.90
20973;DHT22;10645;52.370;13.314;2023-04-25T00:14:04;8.10;99.90
20973;DHT22;10645;52.370;13.314;2023-04-25T00:16:30;8.00;99.90
20973;DHT22;10645;52.370;13.314;2023-04-25T00:19:00;8.00;99.90
20973;DHT22;10645;52.370;13.314;2023-04-25T00:21:27;8.10;99.90
20973;DHT22;10645;52.370;13.314;2023-04-25T00:23:54;8.10;99.90
20973;DHT22;10645;52.370;13.314;2023-04-25T00:26:21;8.00;99.90
20973;DHT22;10645;52.370;13.314;2023-04-25T00:28:47;8.10;99.90
20973;DHT22;10645;52.370;13.314;2023-04-25T00:31:14;8.00;99.90
20973;DHT22;10645;52.370;13.314;2023-04-25T00:33:40;8.10;99.90
20973;DHT22;10645;52.370;13.314;2023-04-25T00:36:07;8.20;99.90
20973;DHT22;10645;52.370;13.314;2023-04-25T00:38:33;8.20;99.90
20973;DHT22;10645;52.370;13.314;2023-04-25T00:40:59;8.20;99.90
20973;DHT22;10645;52.370;13.314;2023-04-25T00:43:26;8.30;99.90
20973;DHT22;10645;52.370;13.314;2023-04-25T00:45:53;8.30;99.90
20973;DHT22;10645;52.370;13.314;2023-04-25T00:48:22;8.30;99.90
20973;DHT22;10645;52.370;13.314;2023-04-25T00:50:53;8.30;99.90
20973;DHT22;10645;52.370;13.314;2023-04-25T00:53:23;8.40;99.90
20973;DHT22;10645;52.370;13.314;2023-04-25T00:55:50;8.30;99.90
20973;DHT22;10645;52.370;13.314;2023-04-25T00:58:17;8.40;99.90
20973;DHT22;10645;52.370;13.314;2023-04-25T01:00:45;8.40;99.90
20973;DHT22;10645;52.370;13.314;2023-04-25T01:03:13;8.40;99.90
20973;DHT22;10645;52.370;13.314;2023-04-25T01:05:41;8.40;99.90
20973;DHT22;10645;52.370;13.314;2023-04-25T01:08:08;8.40;99.90
20973;DHT22;10645;52.370;13.314;2023-04-25T01:10:34;8.40;99.90
20973;DHT22;10645;52.370;13.314;2023-04-25T01:13:00;8.40;99.90
20973;DHT22;10645;52.370;13.314;2023-04-25T01:15:26;8.40;99.90
20973;DHT22;10645;52.370;13.314;2023-04-25T01:17:53;8.30;99.90
20973;DHT22;10645;52.370;13.314;2023-04-25T01:20:21;8.40;99.90
20973;DHT22;10645;52.370;13.314;2023-04-25T01:22:48;8.30;99.90
20973;DHT22;10645;52.370;13.314;2023-04-25T01:25:14;8.30;99.90
20973;DHT22;10645;52.370;13.314;2023-04-25T01:27:41;8.30;99.90
20973;DHT22;10645;52.370;13.314;2023-04-25T01:30:07;8.20;99.90
20973;DHT22;10645;52.370;13.314;2023-04-25T01:32:34;8.20;99.90
20973;DHT22;10645;52.370;13.314;2023-04-25T01:35:06;8.20;99.90
20973;DHT22;10645;52.370;13.314;2023-04-25T01:37:37;8.20;99.90
20973;DHT22;10645;52.370;13.314;2023-04-25T01:40:03;8.20;99.90
20973;DHT22;10645;52.370;13.314;2023-04-25T01:42:32;8.10;99.90
20973;DHT22;10645;52.370;13.314;2023-04-25T01:44:58;8.10;99.90
20973;DHT22;10645;52.370;13.314;2023-04-25T01:47:24;8.10;99.90
20973;DHT22;10645;52.370;13.314;2023-04-25T01:49:51;8.00;99.90
20973;DHT22;10645;52.370;13.314;2023-04-25T01:52:17;8.00;99.90
20973;DHT22;10645;52.370;13.314;2023-04-25T01:54:43;8.00;99.90
20973;DHT22;10645;52.370;13.314;2023-04-25T01:57:11;8.00;99.90
20973;DHT22;10645;52.370;13.314;2023-04-25T01:59:39;8.00;99.90
20973;DHT22;10645;52.370;13.314;2023-04-25T02:02:15;7.90;99.90
20973;DHT22;10645;52.370;13.314;2023-04-25T02:04:41;7.90;99.90
20973;DHT22;10645;52.370;13.314;2023-04-25T02:07:08;7.90;99.90
20973;DHT22;10645;52.370;13.314;2023-04-25T02:09:48;7.90;99.90
20973;DHT22;10645;52.370;13.314;2023-04-25T02:12:16;7.90;99.90
20973;DHT22;10645;52.370;13.314;2023-04-25T02:15:12;7.90;99.90
20973;DHT22;10645;52.370;13.314;2023-04-25T02:17:42;7.90;99.90
20973;DHT22;10645;52.370;13.314;2023-04-25T02:20:09;7.80;99.90
20973;DHT22;10645;52.370;13.314;2023-04-25T02:22:35;7.80;99.90
20973;DHT22;10645;52.370;13.314;2023-04-25T02:25:05;7.80;99.90
20973;DHT22;10645;52.370;13.314;2023-04-25T02:27:31;7.80;99.90
20973;DHT22;10645;52.370;13.314;2023-04-25T02:29:57;7.80;99.90
20973;DHT22;10645;52.370;13.314;2023-04-25T02:32:23;7.80;99.90
20973;DHT22;10645;52.370;13.314;2023-04-25T02:34:49;7.80;99.90
20973;DHT22;10645;52.370;13.314;2023-04-25T02:37:16;7.80;99.90
20973;DHT22;10645;52.370;13.314;2023-04-25T02:39:45;7.80;99.90
20973;DHT22;10645;52.370;13.314;2023-04-25T02:42:12;7.80;99.90
20973;DHT22;10645;52.370;13.314;2023-04-25T02:44:38;7.80;99.90
20973;DHT22;10645;52.370;13.314;2023-04-25T02:47:05;7.80;99.90
20973;DHT22;10645;52.370;13.314;2023-04-25T02:49:31;7.80;99.90
20973;DHT22;10645;52.370;13.314;2023-04-25T02:51:57;7.80;99.90
20973;DHT22;10645;52.370;13.314;2023-04-25T02:54:23;7.80;99.90
20973;DHT22;10645;52.370;13.314;2023-04-25T02:56:49;7.80;99.90
20973;DHT22;10645;52.370;13.314;2023-04-25T02:59:22;7.80;99.90
20973;DHT22;10645;52.370;13.314;2023-04-25T03:01:48;7.80;99.90
20973;DHT22;10645;52.370;13.314;2023-04-25T03:04:14;7.80;99.90
20973;DHT22;10645;52.370;13.314;2023-04-25T03:06:40;7.90;99.90
20973;DHT22;10645;52.370;13.314;2023-04-25T03:09:06;7.80;99.90
20973;DHT22;10645;52.370;13.314;2023-04-25T03:11:32;7.80;99.90
20973;DHT22;10645;52.370;13.314;2023-04-25T03:14:00;7.80;99.90
20973;DHT22;10645;52.370;13.314;2023-04-25T03:16:26;7.80;99.90
20973;DHT22;10645;52.370;13.314;2023-04-25T03:18:52;7.80;99.90
20973;DHT22;10645;52.370;13.314;2023-04-25T03:21:18;7.70;99.90
20973;DHT22;10645;52.370;13.314;2023-04-25T03:23:44;7.80;99.90
20973;DHT22;10645;52.370;13.314;2023-04-25T03:26:10;7.80;99.90
20973;DHT22;10645;52.370;13.314;2023-04-25T03:28:36;7.90;99.90
20973;DHT22;10645;52.370;13.314;2023-04-25T03:31:03;7.90;99.90
20973;DHT22;10645;52.370;13.314;2023-04-25T03:33:29;7.90;99.90
20973;DHT22;10645;52.370;13.314;2023-04-25T03:35:55;7.90;99.90
20973;DHT22;10645;52.370;13.314;2023-04-25T03:38:21;7.90;99.90
20973;DHT22;10645;52.370;13.314;2023-04-25T03:40:47;7.80;99.90
20973;DHT22;10645;52.370;13.314;2023-04-25T03:43:20;7.80;99.90
20973;DHT22;10645;52.370;13.314;2023-04-25T03:45:54;7.80;99.90
20973;DHT22;10645;52.370;13.314;2023-04-25T03:48:22;7.80;99.90
20973;DHT22;10645;52.370;13.314;2023-04-25T03:50:50;7.80;99.90
20973;DHT22;10645;52.370;13.314;2023-04-25T03:53:16;7.80;99.90
20973;DHT22;10645;52.370;13.314;2023-04-25T03:56:03;7.80;99.90
20973;DHT22;10645;52.370;13.314;2023-04-25T03:58:32;7.80;99.90
20973;DHT22;10645;52.370;13.314;2023-04-25T04:00:58;7.80;99.90
20973;DHT22;10645;52.370;13.314;2023-04-25T04:03:24;7.80;99.90
20973;DHT22;10645;52.370;13.314;2023-04-25T04:05:51;7.80;99.90
20973;DHT22;10645;52.370;13.314;2023-04-25T04:08:17;7.80;99.90
20973;DHT22;10645;52.370;13.314;2023-04-25T04:10:43;7.80;99.90
20973;DHT22;10645;52.370;13.314;2023-04-25T04:13:09;7.70;99.90
20973;DHT22;10645;52.370;13.314;2023-04-25T04:15:36;7.70;99.90
20973;DHT22;10645;52.370;13.314;2023-04-25T04:18:02;7.70;99.90
20973;DHT22;10645;52.370;13.314;2023-04-25T04:20:29;7.70;99.90
20973;DHT22;10645;52.370;13.314;2023-04-25T04:22:56;7.80;99.90
20973;DHT22;10645;52.370;13.314;2023-04-25T04:25:23;7.80;99.90
20973;DHT22;10645;52.370;13.314;2023-04-25T04:28:04;7.80;99.90
20973;DHT22;10645;52.370;13.314;2023-04-25T04:30:50;7.90;99.90
20973;DHT22;10645;52.370;13.314;2023-04-25T04:33:18;7.90;99.90
20973;DHT22;10645;52.370;13.314;2023-04-25T04:35:52;7.90;99.90
20973;DHT22;10645;52.370;13.314;2023-04-25T04:38:19;7.90;99.90
20973;DHT22;10645;52.370;13.314;2023-04-25T04:40:45;8.00;99.90
20973;DHT22;10645;52.370;13.314;2023-04-25T04:43:23;8.00;99.90
20973;DHT22;10645;52.370;13.314;2023-04-25T04:46:07;8.00;99.90
20973;DHT22;10645;52.370;13.314;2023-04-25T04:48:54;8.10;99.90
20973;DHT22;10645;52.370;13.314;2023-04-25T04:51:42;8.10;99.90
20973;DHT22;10645;52.370;13.314;2023-04-25T04:54:30;8.20;99.90
20973;DHT22;10645;52.370;13.314;2023-04-25T04:57:22;8.20;99.90
20973;DHT22;10645;52.370;13.314;2023-04-25T05:00:01;8.30;99.90
20973;DHT22;10645;52.370;13.314;2023-04-25T05:02:49;8.30;99.90
20973;DHT22;10645;52.370;13.314;2023-04-25T05:05:39;8.30;99.90
20973;DHT22;10645;52.370;13.314;2023-04-25T05:08:30;8.40;99.90
20973;DHT22;10645;52.370;13.314;2023-04-25T05:11:12;8.50;99.90
20973;DHT22;10645;52.370;13.314;2023-04-25T05:13:52;8.60;99.90
20973;DHT22;10645;52.370;13.314;2023-04-25T05:16:37;8.50;99.90
20973;DHT22;10645;52.370;13.314;2023-04-25T05:19:21;8.60;99.90
20973;DHT22;10645;52.370;13.314;2023-04-25T05:21:54;8.50;99.90
20973;DHT22;10645;52.370;13.314;2023-04-25T05:24:38;8.50;99.90
20973;DHT22;10645;52.370;13.314;2023-04-25T05:27:18;8.50;99.90
20973;DHT22;10645;52.370;13.314;2023-04-25T05:29:58;8.60;99.90
20973;DHT22;10645;52.370;13.314;2023-04-25T05:32:28;8.60;99.90
20973;DHT22;10645;52.370;13.314;2023-04-25T05:34:55;8.60;99.90
20973;DHT22;10645;52.370;13.314;2023-04-25T05:37:26;8.60;99.90
20973;DHT22;10645;52.370;13.314;2023-04-25T05:40:02;8.60;99.90
20973;DHT22;10645;52.370;13.314;2023-04-25T05:42:44;8.70;99.90
20973;DHT22;10645;52.370;13.314;2023-04-25T05:45:29;8.70;99.90
20973;DHT22;10645;52.370;13.314;2023-04-25T05:48:07;8.80;99.90
20973;DHT22;10645;52.370;13.314;2023-04-25T05:50:41;8.80;99.90
20973;DHT22;10645;52.370;13.314;2023-04-25T05:53:23;8.80;99.90
20973;DHT22;10645;52.370;13.314;2023-04-25T05:55:59;8.90;99.90
20973;DHT22;10645;52.370;13.314;2023-04-25T05:58:26;8.90;99.90
20973;DHT22;10645;52.370;13.314;2023-04-25T06:00:54;9.00;99.90
20973;DHT22;10645;52.370;13.314;2023-04-25T06:03:20;9.00;99.90
20973;DHT22;10645;52.370;13.314;2023-04-25T06:05:47;9.10;99.90
20973;DHT22;10645;52.370;13.314;2023-04-25T06:08:13;9.10;99.90
20973;DHT22;10645;52.370;13.314;2023-04-25T06:10:39;9.10;99.90
20973;DHT22;10645;52.370;13.314;2023-04-25T06:13:05;9.10;99.90
20973;DHT22;10645;52.370;13.314;2023-04-25T06:15:33;9.10;99.90
20973;DHT22;10645;52.370;13.314;2023-04-25T06:18:00;9.30;99.90
20973;DHT22;10645;52.370;13.314;2023-04-25T06:20:26;9.40;99.90
20973;DHT22;10645;52.370;13.314;2023-04-25T06:22:55;9.40;99.90
20973;DHT22;10645;52.370;13.314;2023-04-25T06:25:29;9.40;99.90
20973;DHT22;10645;52.370;13.314;2023-04-25T06:27:55;9.40;99.90
20973;DHT22;10645;52.370;13.314;2023-04-25T06:30:22;9.40;99.90
20973;DHT22;10645;52.370;13.314;2023-04-25T06:32:53;9.50;99.90
20973;DHT22;10645;52.370;13.314;2023-04-25T06:35:19;9.40;99.90
20973;DHT22;10645;52.370;13.314;2023-04-25T06:37:46;9.50;99.90
20973;DHT22;10645;52.370;13.314;2023-04-25T06:40:12;9.50;99.90
20973;DHT22;10645;52.370;13.314;2023-04-25T06:42:38;9.50;99.90
20973;DHT22;10645;52.370;13.314;2023-04-25T06:45:24;9.50;99.90
20973;DHT22;10645;52.370;13.314;2023-04-25T06:47:52;9.60;99.90
20973;DHT22;10645;52.370;13.314;2023-04-25T06:50:18;9.50;99.90
20973;DHT22;10645;52.370;13.314;2023-04-25T06:52:44;9.50;99.90
20973;DHT22;10645;52.370;13.314;2023-04-25T06:55:10;9.50;99.90
20973;DHT22;10645;52.370;13.314;2023-04-25T06:58:03;9.40;99.90
20973;DHT22;10645;52.370;13.314;2023-04-25T07:00:49;9.40;99.90
20973;DHT22;10645;52.370;13.314;2023-04-25T07:03:16;9.50;99.90
20973;DHT22;10645;52.370;13.314;2023-04-25T07:05:43;9.50;99.90
20973;DHT22;10645;52.370;13.314;2023-04-25T07:08:09;9.50;99.90
20973;DHT22;10645;52.370;13.314;2023-04-25T07:10:35;9.50;99.90
20973;DHT22;10645;52.370;13.314;2023-04-25T07:13:02;9.40;99.90
20973;DHT22;10645;52.370;13.314;2023-04-25T07:15:28;9.40;99.90
20973;DHT22;10645;52.370;13.314;2023-04-25T07:17:54;9.40;99.90
20973;DHT22;10645;52.370;13.314;2023-04-25T07:20:20;9.40;99.90
20973;DHT22;10645;52.370;13.314;2023-04-25T07:22:46;9.40;99.90
20973;DHT22;10645;52.370;13.314;2023-04-25T07:25:13;9.40;99.90
20973;DHT22;10645;52.370;13.314;2023-04-25T07:27:39;9.30;99.90
20973;DHT22;10645;52.370;13.314;2023-04-25T07:30:14;9.30;99.90
20973;DHT22;10645;52.370;13.314;2023-04-25T07:32:40;9.10;99.90
20973;DHT22;10645;52.370;13.314;2023-04-25T07:35:06;8.90;99.90
20973;DHT22;10645;52.370;13.314;2023-04-25T07:37:36;8.70;99.90
20973;DHT22;10645;52.370;13.314;2023-04-25T07:40:08;8.60;99.90
20973;DHT22;10645;52.370;13.314;2023-04-25T07:42:36;8.60;99.90
20973;DHT22;10645;52.370;13.314;2023-04-25T07:45:03;8.60;99.90
20973;DHT22;10645;52.370;13.314;2023-04-25T07:47:29;8.60;99.90
20973;DHT22;10645;52.370;13.314;2023-04-25T07:49:56;8.70;99.90
20973;DHT22;10645;52.370;13.314;2023-04-25T07:52:23;8.80;99.90
20973;DHT22;10645;52.370;13.314;2023-04-25T07:54:56;8.80;99.90
20973;DHT22;10645;52.370;13.314;2023-04-25T07:57:31;8.80;99.90
20973;DHT22;10645;52.370;13.314;2023-04-25T07:59:57;8.90;99.90
20973;DHT22;10645;52.370;13.314;2023-04-25T08:02:24;8.90;99.90
20973;DHT22;10645;52.370;13.314;2023-04-25T08:04:54;9.10;99.90
20973;DHT22;10645;52.370;13.314;2023-04-25T08:07:21;9.30;99.90
20973;DHT22;10645;52.370;13.314;2023-04-25T08:09:51;9.40;99.90
20973;DHT22;10645;52.370;13.314;2023-04-25T08:12:24;9.50;99.90
20973;DHT22;10645;52.370;13.314;2023-04-25T08:14:51;9.60;99.90
20973;DHT22;10645;52.370;13.314;2023-04-25T08:17:17;9.60;99.90
20973;DHT22;10645;52.370;13.314;2023-04-25T08:19:44;9.70;99.90
20973;DHT22;10645;52.370;13.314;2023-04-25T08:22:19;9.60;99.90
20973;DHT22;10645;52.370;13.314;2023-04-25T08:24:58;9.50;99.90
20973;DHT22;10645;52.370;13.314;2023-04-25T08:27:24;9.50;99.90
20973;DHT22;10645;52.370;13.314;2023-04-25T08:29:50;9.50;99.90
20973;DHT22;10645;52.370;13.314;2023-04-25T08:32:18;9.60;99.90
20973;DHT22;10645;52.370;13.314;2023-04-25T08:34:57;9.60;99.90
20973;DHT22;10645;52.370;13.314;2023-04-25T08:37:23;9.80;99.90
20973;DHT22;10645;52.370;13.314;2023-04-25T08:39:56;9.90;99.90
20973;DHT22;10645;52.370;13.314;2023-04-25T08:42:37;9.90;99.90
20973;DHT22;10645;52.370;13.314;2023-04-25T08:45:04;10.00;99.90
20973;DHT22;10645;52.370;13.314;2023-04-25T08:47:34;10.10;99.90
20973;DHT22;10645;52.370;13.314;2023-04-25T08:50:03;10.20;99.90
20973;DHT22;10645;52.370;13.314;2023-04-25T08:52:35;10.20;99.90
20973;DHT22;10645;52.370;13.314;2023-04-25T08:55:02;10.20;99.90
20973;DHT22;10645;52.370;13.314;2023-04-25T08:57:29;10.10;99.90
20973;DHT22;10645;52.370;13.314;2023-04-25T08:59:57;10.00;99.90
20973;DHT22;10645;52.370;13.314;2023-04-25T09:02:24;9.80;99.90
20973;DHT22;10645;52.370;13.314;2023-04-25T09:04:51;9.60;99.90
20973;DHT22;10645;52.370;13.314;2023-04-25T09:07:20;9.80;99.90
20973;DHT22;10645;52.370;13.314;2023-04-25T09:09:47;10.10;99.90
20973;DHT22;10645;52.370;13.314;2023-04-25T09:12:19;10.20;99.90
20973;DHT22;10645;52.370;13.314;2023-04-25T09:15:06;10.20;99.90
20973;DHT22;10645;52.370;13.314;2023-04-25T09:18:00;10.30;99.90
20973;DHT22;10645;52.370;13.314;2023-04-25T09:20:32;10.90;99.90
20973;DHT22;10645;52.370;13.314;2023-04-25T09:23:06;11.10;99.90
20973;DHT22;10645;52.370;13.314;2023-04-25T09:25:36;11.10;99.90
20973;DHT22;10645;52.370;13.314;2023-04-25T09:28:05;11.30;99.90
20973;DHT22;10645;52.370;13.314;2023-04-25T09:30:33;11.40;99.90
20973;DHT22;10645;52.370;13.314;2023-04-25T09:33:16;11.40;99.90
20973;DHT22;10645;52.370;13.314;2023-04-25T09:35:47;11.20;99.90
20973;DHT22;10645;52.370;13.314;2023-04-25T09:38:25;11.30;99.90
20973;DHT22;10645;52.370;13.314;2023-04-25T09:40:56;11.30;99.90
20973;DHT22;10645;52.370;13.314;2023-04-25T09:43:34;11.20;99.90
20973;DHT22;10645;52.370;13.314;2023-04-25T09:46:00;11.40;99.90
20973;DHT22;10645;52.370;13.314;2023-04-25T09:48:29;11.80;99.90
20973;DHT22;10645;52.370;13.314;2023-04-25T09:51:11;12.20;99.90
20973;DHT22;10645;52.370;13.314;2023-04-25T09:53:44;12.30;99.90
20973;DHT22;10645;52.370;13.314;2023-04-25T09:56:35;12.40;99.90
20973;DHT22;10645;52.370;13.314;2023-04-25T09:59:05;11.90;99.90
20973;DHT22;10645;52.370;13.314;2023-04-25T10:01:34;11.70;99.90
20973;DHT22;10645;52.370;13.314;2023-04-25T10:04:12;11.70;99.90
20973;DHT22;10645;52.370;13.314;2023-04-25T10:06:53;11.80;99.90
20973;DHT22;10645;52.370;13.314;2023-04-25T10:09:21;11.70;99.90
20973;DHT22;10645;52.370;13.314;2023-04-25T10:11:50;12.10;99.90
20973;DHT22;10645;52.370;13.314;2023-04-25T10:14:17;12.40;99.90
20973;DHT22;10645;52.370;13.314;2023-04-25T10:16:45;12.10;99.90
20973;DHT22;10645;52.370;13.314;2023-04-25T10:19:11;11.70;99.90
20973;DHT22;10645;52.370;13.314;2023-04-25T10:21:46;11.40;99.90
20973;DHT22;10645;52.370;13.314;2023-04-25T10:24:14;11.30;99.90
20973;DHT22;10645;52.370;13.314;2023-04-25T10:26:41;11.10;99.90
20973;DHT22;10645;52.370;13.314;2023-04-25T10:29:07;10.90;99.90
20973;DHT22;10645;52.370;13.314;2023-04-25T10:31:44;11.00;99.90
20973;DHT22;10645;52.370;13.314;2023-04-25T10:34:11;11.00;99.90
20973;DHT22;10645;52.370;13.314;2023-04-25T10:36:37;11.10;99.90
20973;DHT22;10645;52.370;13.314;2023-04-25T10:39:04;11.20;99.90
20973;DHT22;10645;52.370;13.314;2023-04-25T10:41:53;11.50;99.90
20973;DHT22;10645;52.370;13.314;2023-04-25T10:44:21;11.70;99.90
20973;DHT22;10645;52.370;13.314;2023-04-25T10:46:47;11.70;99.00
20973;DHT22;10645;52.370;13.314;2023-04-25T10:52:17;11.30;99.80
20973;DHT22;10645;52.370;13.314;2023-04-25T10:54:54;11.10;99.90
20973;DHT22;10645;52.370;13.314;2023-04-25T10:57:40;11.00;99.90
20973;DHT22;10645;52.370;13.314;2023-04-25T11:00:13;10.90;99.90
20973;DHT22;10645;52.370;13.314;2023-04-25T11:05:09;10.80;99.90
20973;DHT22;10645;52.370;13.314;2023-04-25T11:07:49;10.70;99.80
20973;DHT22;10645;52.370;13.314;2023-04-25T11:10:16;10.70;99.90
20973;DHT22;10645;52.370;13.314;2023-04-25T11:12:42;10.90;99.90
20973;DHT22;10645;52.370;13.314;2023-04-25T11:15:08;10.80;99.70
20973;DHT22;10645;52.370;13.314;2023-04-25T11:17:34;10.80;99.90
20973;DHT22;10645;52.370;13.314;2023-04-25T11:20:01;10.90;99.90
20973;DHT22;10645;52.370;13.314;2023-04-25T11:22:28;10.80;99.50
20973;DHT22;10645;52.370;13.314;2023-04-25T11:24:55;10.80;99.90
20973;DHT22;10645;52.370;13.314;2023-04-25T11:27:21;10.90;99.90
20973;DHT22;10645;52.370;13.314;2023-04-25T11:29:47;11.00;99.50
20973;DHT22;10645;52.370;13.314;2023-04-25T11:32:15;10.90;99.90
20973;DHT22;10645;52.370;13.314;2023-04-25T11:34:44;10.90;99.90
20973;DHT22;10645;52.370;13.314;2023-04-25T11:37:11;10.90;99.80
20973;DHT22;10645;52.370;13.314;2023-04-25T11:39:38;10.60;99.70
20973;DHT22;10645;52.370;13.314;2023-04-25T11:42:04;10.30;99.90
20973;DHT22;10645;52.370;13.314;2023-04-25T11:44:31;10.30;99.90
20973;DHT22;10645;52.370;13.314;2023-04-25T11:46:57;10.20;99.90
20973;DHT22;10645;52.370;13.314;2023-04-25T11:49:24;10.10;99.90
20973;DHT22;10645;52.370;13.314;2023-04-25T11:51:50;10.20;99.90
20973;DHT22;10645;52.370;13.314;2023-04-25T11:54:16;10.20;99.90
20973;DHT22;10645;52.370;13.314;2023-04-25T11:56:44;10.40;99.70
20973;DHT22;10645;52.370;13.314;2023-04-25T11:59:11;10.50;99.30
20973;DHT22;10645;52.370;13.314;2023-04-25T12:01:39;10.40;98.70
20973;DHT22;10645;52.370;13.314;2023-04-25T12:04:21;10.60;98.60
20973;DHT22;10645;52.370;13.314;2023-04-25T12:06:51;10.70;98.90
20973;DHT22;10645;52.370;13.314;2023-04-25T12:09:31;10.80;99.10
20973;DHT22;10645;52.370;13.314;2023-04-25T12:11:59;10.80;98.80
20973;DHT22;10645;52.370;13.314;2023-04-25T12:14:26;10.80;99.00
20973;DHT22;10645;52.370;13.314;2023-04-25T12:16:55;10.70;98.30
20973;DHT22;10645;52.370;13.314;2023-04-25T12:19:23;10.80;98.40
20973;DHT22;10645;52.370;13.314;2023-04-25T12:21:50;10.90;98.90
20973;DHT22;10645;52.370;13.314;2023-04-25T12:24:18;11.10;99.00
20973;DHT22;10645;52.370;13.314;2023-04-25T12:27:02;11.00;97.90
20973;DHT22;10645;52.370;13.314;2023-04-25T12:29:33;10.90;96.80
20973;DHT22;10645;52.370;13.314;2023-04-25T12:32:00;10.90;97.10
20973;DHT22;10645;52.370;13.314;2023-04-25T12:34:27;10.90;97.00
20973;DHT22;10645;52.370;13.314;2023-04-25T12:36:54;10.90;96.60
20973;DHT22;10645;52.370;13.314;2023-04-25T12:39:21;11.20;98.10
20973;DHT22;10645;52.370;13.314;2023-04-25T12:41:48;11.50;97.50
20973;DHT22;10645;52.370;13.314;2023-04-25T12:44:15;11.80;97.30
20973;DHT22;10645;52.370;13.314;2023-04-25T12:46:41;12.00;95.80
20973;DHT22;10645;52.370;13.314;2023-04-25T12:49:08;11.90;95.80
20973;DHT22;10645;52.370;13.314;2023-04-25T12:51:35;11.80;95.90
20973;DHT22;10645;52.370;13.314;2023-04-25T12:54:03;11.70;96.00
20973;DHT22;10645;52.370;13.314;2023-04-25T12:56:30;11.40;95.60
20973;DHT22;10645;52.370;13.314;2023-04-25T12:58:57;11.20;97.20
20973;DHT22;10645;52.370;13.314;2023-04-25T13:01:24;11.00;96.30
20973;DHT22;10645;52.370;13.314;2023-04-25T13:03:50;10.90;97.00
20973;DHT22;10645;52.370;13.314;2023-04-25T13:06:17;11.10;97.40
20973;DHT22;10645;52.370;13.314;2023-04-25T13:08:43;11.10;97.30
20973;DHT22;10645;52.370;13.314;2023-04-25T13:11:10;11.10;97.20
20973;DHT22;10645;52.370;13.314;2023-04-25T13:13:37;11.30;97.90
20973;DHT22;10645;52.370;13.314;2023-04-25T13:16:04;11.40;97.30
20973;DHT22;10645;52.370;13.314;2023-04-25T13:18:31;11.40;96.00
20973;DHT22;10645;52.370;13.314;2023-04-25T13:20:58;11.40;97.00
20973;DHT22;10645;52.370;13.314;2023-04-25T13:23:26;11.50;96.20
20973;DHT22;10645;52.370;13.314;2023-04-25T13:25:52;11.60;96.90
20973;DHT22;10645;52.370;13.314;2023-04-25T13:28:18;11.50;96.00
20973;DHT22;10645;52.370;13.314;2023-04-25T13:30:45;11.60;95.70
20973;DHT22;10645;52.370;13.314;2023-04-25T13:33:11;11.90;95.50
20973;DHT22;10645;52.370;13.314;2023-04-25T13:35:38;12.10;96.50
20973;DHT22;10645;52.370;13.314;2023-04-25T13:38:04;12.40;95.70
20973;DHT22;10645;52.370;13.314;2023-04-25T13:40:30;12.90;94.70
20973;DHT22;10645;52.370;13.314;2023-04-25T13:42:57;12.90;93.50
20973;DHT22;10645;52.370;13.314;2023-04-25T13:45:24;12.70;93.00
20973;DHT22;10645;52.370;13.314;2023-04-25T13:47:50;12.60;93.30
20973;DHT22;10645;52.370;13.314;2023-04-25T13:50:17;12.20;94.20
20973;DHT22;10645;52.370;13.314;2023-04-25T13:52:43;12.10;95.30
20973;DHT22;10645;52.370;13.314;2023-04-25T13:55:09;11.80;94.90
20973;DHT22;10645;52.370;13.314;2023-04-25T13:57:36;11.60;95.50
20973;DHT22;10645;52.370;13.314;2023-04-25T14:00:04;11.50;95.80
20973;DHT22;10645;52.370;13.314;2023-04-25T14:02:35;11.30;96.00
20973;DHT22;10645;52.370;13.314;2023-04-25T14:05:02;11.10;96.60
20973;DHT22;10645;52.370;13.314;2023-04-25T14:07:29;10.90;96.10
20973;DHT22;10645;52.370;13.314;2023-04-25T14:09:56;10.80;96.30
20973;DHT22;10645;52.370;13.314;2023-04-25T14:12:25;10.60;96.60
20973;DHT22;10645;52.370;13.314;2023-04-25T14:14:51;10.60;97.40
20973;DHT22;10645;52.370;13.314;2023-04-25T14:17:19;10.30;97.50
20973;DHT22;10645;52.370;13.314;2023-04-25T14:19:45;10.20;98.30
20973;DHT22;10645;52.370;13.314;2023-04-25T14:22:14;10.10;98.30
20973;DHT22;10645;52.370;13.314;2023-04-25T14:24:41;10.00;99.00
20973;DHT22;10645;52.370;13.314;2023-04-25T14:27:07;10.00;98.70
20973;DHT22;10645;52.370;13.314;2023-04-25T14:29:34;9.90;98.70
20973;DHT22;10645;52.370;13.314;2023-04-25T14:32:01;9.80;99.00
20973;DHT22;10645;52.370;13.314;2023-04-25T14:34:27;9.80;99.40
20973;DHT22;10645;52.370;13.314;2023-04-25T14:36:53;9.70;99.10
20973;DHT22;10645;52.370;13.314;2023-04-25T14:39:19;9.60;99.40
20973;DHT22;10645;52.370;13.314;2023-04-25T14:41:45;9.50;99.30
20973;DHT22;10645;52.370;13.314;2023-04-25T14:44:11;9.50;99.20
20973;DHT22;10645;52.370;13.314;2023-04-25T14:46:38;9.60;99.30
20973;DHT22;10645;52.370;13.314;2023-04-25T14:49:04;9.70;99.90
20973;DHT22;10645;52.370;13.314;2023-04-25T14:51:30;9.80;99.30
20973;DHT22;10645;52.370;13.314;2023-04-25T14:53:57;10.00;99.90
20973;DHT22;10645;52.370;13.314;2023-04-25T14:56:23;10.30;99.70
20973;DHT22;10645;52.370;13.314;2023-04-25T14:58:49;10.60;99.90
20973;DHT22;10645;52.370;13.314;2023-04-25T15:01:15;10.80;99.90
20973;DHT22;10645;52.370;13.314;2023-04-25T15:03:42;10.90;98.90
20973;DHT22;10645;52.370;13.314;2023-04-25T15:06:08;10.70;98.30
20973;DHT22;10645;52.370;13.314;2023-04-25T15:08:34;10.70;98.90
20973;DHT22;10645;52.370;13.314;2023-04-25T15:11:00;10.60;98.70
20973;DHT22;10645;52.370;13.314;2023-04-25T15:13:28;10.40;98.60
20973;DHT22;10645;52.370;13.314;2023-04-25T15:15:54;10.30;98.90
20973;DHT22;10645;52.370;13.314;2023-04-25T15:18:21;10.20;99.40
20973;DHT22;10645;52.370;13.314;2023-04-25T15:20:49;10.30;99.70
20973;DHT22;10645;52.370;13.314;2023-04-25T15:23:16;10.20;99.90
20973;DHT22;10645;52.370;13.314;2023-04-25T15:25:43;10.30;99.90
20973;DHT22;10645;52.370;13.314;2023-04-25T15:28:09;10.30;99.40
20973;DHT22;10645;52.370;13.314;2023-04-25T15:30:35;10.40;99.80
20973;DHT22;10645;52.370;13.314;2023-04-25T15:33:01;10.50;99.90
20973;DHT22;10645;52.370;13.314;2023-04-25T15:35:27;10.60;99.90
20973;DHT22;10645;52.370;13.314;2023-04-25T15:37:53;10.50;99.80
20973;DHT22;10645;52.370;13.314;2023-04-25T15:40:19;10.40;99.70
20973;DHT22;10645;52.370;13.314;2023-04-25T15:42:47;10.30;99.50
20973;DHT22;10645;52.370;13.314;2023-04-25T15:45:17;10.20;99.70